createdAt,value
2022-08-17T00:01:55.130Z,18.30
2022-08-17T00:04:50.302Z,18.30
2022-08-17T00:07:40.240Z,18.30
2022-08-17T00:10:45.940Z,18.30
2022-08-17T00:13:36.043Z,18.30
2022-08-17T00:16:55.757Z,18.30
2022-08-17T00:19:33.112Z,18.30
2022-08-17T00:22:31.580Z,18.40
2022-08-17T00:25:26.694Z,18.40
2022-08-17T00:28:16.122Z,18.40
2022-08-17T00:31:02.784Z,18.50
2022-08-17T00:33:54.230Z,18.50
2022-08-17T00:36:43.878Z,18.50
2022-08-17T00:39:30.194Z,18.50
2022-08-17T00:42:19.548Z,18.50
2022-08-17T00:45:08.174Z,18.50
2022-08-17T00:47:54.201Z,18.60
2022-08-17T00:51:16.809Z,18.60
2022-08-17T00:54:20.008Z,18.60
2022-08-17T00:57:11.068Z,18.60
2022-08-17T01:00:03.752Z,18.60
2022-08-17T01:02:50.669Z,18.60
2022-08-17T01:05:42.113Z,18.50
2022-08-17T01:08:31.213Z,18.50
2022-08-17T01:11:46.507Z,18.50
2022-08-17T01:14:33.307Z,18.50
2022-08-17T01:17:19.744Z,18.40
2022-08-17T01:20:05.922Z,18.40
2022-08-17T01:22:55.476Z,18.30
2022-08-17T01:25:42.126Z,18.20
2022-08-17T01:28:52.832Z,18.20
2022-08-17T01:31:48.057Z,18.10
2022-08-17T01:34:42.380Z,18.10
2022-08-17T01:37:39.797Z,18.00
2022-08-17T01:40:43.927Z,18.00
2022-08-17T01:43:45.502Z,18.00
2022-08-17T01:46:35.007Z,17.90
2022-08-17T01:49:21.413Z,17.90
2022-08-17T01:52:10.217Z,17.80
2022-08-17T01:54:56.813Z,17.80
2022-08-17T01:57:45.495Z,17.80
2022-08-17T02:01:00.158Z,17.80
2022-08-17T02:03:38.563Z,17.70
2022-08-17T02:06:27.008Z,17.70
2022-08-17T02:09:26.197Z,17.60
2022-08-17T02:12:38.254Z,17.60
2022-08-17T02:15:26.742Z,17.60
2022-08-17T02:18:15.662Z,17.60
2022-08-17T02:21:01.603Z,17.50
2022-08-17T02:23:50.077Z,17.50
2022-08-17T02:26:36.621Z,17.50
2022-08-17T02:29:23.557Z,17.60
2022-08-17T02:32:27.372Z,17.60
2022-08-17T02:35:14.618Z,17.60
2022-08-17T02:38:06.929Z,17.60
2022-08-17T02:40:52.978Z,17.60
2022-08-17T02:43:38.781Z,17.60
2022-08-17T02:46:24.713Z,17.60
2022-08-17T02:49:12.012Z,17.60
2022-08-17T02:51:58.655Z,17.70
2022-08-17T02:54:45.208Z,17.70
2022-08-17T02:57:31.349Z,17.70
2022-08-17T03:00:24.724Z,17.70
2022-08-17T03:03:13.666Z,17.70
2022-08-17T03:06:00.949Z,17.60
2022-08-17T03:08:47.545Z,17.60
2022-08-17T03:11:33.487Z,17.60
2022-08-17T03:14:19.469Z,17.60
2022-08-17T03:17:17.182Z,17.50
2022-08-17T03:20:05.895Z,17.50
2022-08-17T03:22:55.839Z,17.50
2022-08-17T03:25:49.074Z,17.40
2022-08-17T03:28:40.555Z,17.40
2022-08-17T03:31:26.812Z,17.40
2022-08-17T03:34:14.427Z,17.40
2022-08-17T03:37:00.650Z,17.30
2022-08-17T03:39:47.385Z,17.30
2022-08-17T03:42:34.675Z,17.20
2022-08-17T03:45:43.333Z,17.20
2022-08-17T03:48:47.790Z,17.20
2022-08-17T03:51:52.494Z,17.20
2022-08-17T03:54:58.254Z,17.10
2022-08-17T03:57:44.781Z,17.10
2022-08-17T04:00:30.953Z,17.10
2022-08-17T04:03:17.931Z,17.10
2022-08-17T04:06:04.009Z,17.10
2022-08-17T04:08:50.056Z,17.00
2022-08-17T04:11:36.876Z,17.00
2022-08-17T04:14:23.504Z,17.00
2022-08-17T04:17:09.481Z,17.00
2022-08-17T04:19:56.332Z,17.00
2022-08-17T04:23:07.108Z,17.00
2022-08-17T04:25:53.870Z,17.00
2022-08-17T04:28:40.857Z,16.90
2022-08-17T04:31:28.272Z,16.90
2022-08-17T04:34:15.829Z,16.90
2022-08-17T04:37:07.685Z,16.80
2022-08-17T04:40:13.623Z,16.90
2022-08-17T04:43:12.341Z,16.90
2022-08-17T04:46:07.343Z,16.90
2022-08-17T04:48:56.355Z,16.90
2022-08-17T04:51:54.563Z,16.90
2022-08-17T04:54:43.194Z,16.80
2022-08-17T04:57:29.043Z,16.80
2022-08-17T05:00:25.854Z,16.70
2022-08-17T05:03:12.491Z,16.70
2022-08-17T05:05:58.899Z,16.70
2022-08-17T05:08:44.907Z,16.70
2022-08-17T05:11:31.429Z,16.60
2022-08-17T05:14:17.880Z,16.60
2022-08-17T05:17:04.552Z,16.60
2022-08-17T05:19:56.769Z,16.60
2022-08-17T05:22:54.511Z,16.60
2022-08-17T05:25:51.594Z,16.60
2022-08-17T05:28:37.903Z,16.60
2022-08-17T05:31:24.562Z,16.60
2022-08-17T05:34:11.466Z,16.60
2022-08-17T05:36:57.878Z,16.60
2022-08-17T05:39:43.802Z,16.60
2022-08-17T05:42:30.669Z,16.60
2022-08-17T05:45:39.877Z,16.60
2022-08-17T05:48:39.447Z,16.70
2022-08-17T05:51:44.933Z,16.70
2022-08-17T05:54:47.655Z,16.70
2022-08-17T05:57:53.117Z,16.70
2022-08-17T06:00:53.497Z,16.70
2022-08-17T06:03:54.975Z,16.70
2022-08-17T06:06:53.022Z,16.80
2022-08-17T06:09:46.993Z,16.80
2022-08-17T06:13:00.839Z,16.90
2022-08-17T06:15:53.694Z,17.00
2022-08-17T06:18:47.690Z,17.00
2022-08-17T06:21:38.821Z,17.20
2022-08-17T06:25:10.195Z,17.30
2022-08-17T06:28:02.747Z,17.40
2022-08-17T06:31:00.673Z,17.50
2022-08-17T06:33:47.514Z,17.60
2022-08-17T06:36:42.383Z,17.70
2022-08-17T06:39:51.236Z,17.90
2022-08-17T06:43:02.847Z,18.00
2022-08-17T06:46:14.530Z,18.20
2022-08-17T06:49:11.587Z,18.30
2022-08-17T06:52:37.215Z,18.40
2022-08-17T06:55:28.817Z,18.50
2022-08-17T06:58:21.208Z,18.60
2022-08-17T07:01:14.800Z,18.80
2022-08-17T07:04:24.302Z,18.80
2022-08-17T07:07:30.032Z,18.90
2022-08-17T07:10:17.375Z,18.90
2022-08-17T07:13:29.616Z,19.00
2022-08-17T07:16:22.072Z,19.00
2022-08-17T07:19:10.783Z,19.20
2022-08-17T07:22:22.586Z,19.30
2022-08-17T07:25:13.072Z,19.40
2022-08-17T07:28:06.956Z,19.60
2022-08-17T07:30:55.068Z,19.80
2022-08-17T07:34:03.551Z,20.00
2022-08-17T07:37:05.302Z,20.20
2022-08-17T07:39:59.631Z,20.40
2022-08-17T07:43:04.997Z,20.60
2022-08-17T07:46:18.355Z,20.70
2022-08-17T07:49:04.987Z,20.80
2022-08-17T07:51:51.279Z,20.90
2022-08-17T07:54:42.446Z,20.80
2022-08-17T07:57:35.396Z,20.90
2022-08-17T08:00:29.126Z,20.90
2022-08-17T08:03:27.226Z,20.90
2022-08-17T08:06:24.253Z,20.90
2022-08-17T08:09:48.547Z,21.00
2022-08-17T08:12:40.053Z,21.10
2022-08-17T08:15:36.044Z,21.10
2022-08-17T08:18:38.574Z,21.10
2022-08-17T08:22:04.082Z,21.00
2022-08-17T08:25:23.522Z,21.00
2022-08-17T08:28:26.111Z,21.00
2022-08-17T08:31:38.888Z,21.00
2022-08-17T08:35:01.923Z,20.90
2022-08-17T08:38:25.443Z,21.00
2022-08-17T08:41:17.680Z,21.00
2022-08-17T08:44:59.536Z,21.00
2022-08-17T08:48:05.893Z,21.00
2022-08-17T08:51:21.491Z,21.00
2022-08-17T08:54:31.568Z,21.10
2022-08-17T08:57:33.963Z,21.20
2022-08-17T09:00:26.291Z,21.30
2022-08-17T09:03:50.950Z,21.40
2022-08-17T09:07:06.791Z,21.50
2022-08-17T09:10:25.558Z,21.70
2022-08-17T09:13:24.759Z,21.90
2022-08-17T09:16:29.760Z,22.20
2022-08-17T09:19:49.412Z,22.40
2022-08-17T09:22:48.473Z,22.60
2022-08-17T09:25:49.676Z,22.60
2022-08-17T09:28:38.376Z,22.60
2022-08-17T09:31:46.419Z,22.50
2022-08-17T09:34:47.106Z,22.40
2022-08-17T09:38:01.157Z,22.30
2022-08-17T09:40:57.501Z,22.40
2022-08-17T09:43:54.217Z,22.40
2022-08-17T09:46:54.808Z,22.40
2022-08-17T09:49:59.987Z,22.40
2022-08-17T09:52:46.169Z,22.50
2022-08-17T09:56:01.279Z,22.60
2022-08-17T09:59:20.392Z,22.80
2022-08-17T10:02:35.904Z,22.90
2022-08-17T10:05:41.315Z,23.00
2022-08-17T10:08:47.098Z,23.00
2022-08-17T10:12:11.191Z,23.10
2022-08-17T10:15:07.999Z,23.20
2022-08-17T10:18:17.763Z,23.30
2022-08-17T10:21:34.035Z,23.50
2022-08-17T10:25:21.760Z,23.70
2022-08-17T10:28:14.251Z,23.80
2022-08-17T10:31:34.409Z,23.70
2022-08-17T10:34:38.831Z,23.70
2022-08-17T10:37:30.980Z,23.70
2022-08-17T10:40:17.687Z,23.60
2022-08-17T10:43:37.006Z,23.50
2022-08-17T10:46:55.101Z,23.40
2022-08-17T10:49:47.520Z,23.40
2022-08-17T10:52:33.606Z,23.50
2022-08-17T10:55:20.395Z,23.60
2022-08-17T10:58:21.827Z,23.70
2022-08-17T11:01:12.480Z,23.80
2022-08-17T11:04:04.862Z,23.90
2022-08-17T11:07:26.000Z,23.90
2022-08-17T11:10:18.146Z,24.00
2022-08-17T11:13:23.865Z,24.20
2022-08-17T11:16:29.545Z,24.40
2022-08-17T11:19:33.886Z,24.50
2022-08-17T11:22:52.476Z,24.60
2022-08-17T11:25:52.098Z,24.70
2022-08-17T11:28:52.630Z,24.70
2022-08-17T11:31:58.321Z,24.70
2022-08-17T11:34:45.014Z,24.60
2022-08-17T11:38:16.272Z,24.50
2022-08-17T11:41:30.189Z,24.40
2022-08-17T11:44:38.082Z,24.40
2022-08-17T11:48:26.075Z,24.30
2022-08-17T11:51:34.536Z,24.20
2022-08-17T11:54:38.872Z,24.30
2022-08-17T11:57:29.277Z,24.30
2022-08-17T12:00:49.462Z,24.40
2022-08-17T12:03:36.788Z,24.40
2022-08-17T12:06:44.635Z,24.50
2022-08-17T12:09:34.463Z,24.50
2022-08-17T12:12:29.662Z,24.60
2022-08-17T12:15:28.566Z,24.60
2022-08-17T12:18:28.005Z,24.60
2022-08-17T12:21:24.915Z,24.70
2022-08-17T12:24:36.876Z,24.70
2022-08-17T12:27:46.111Z,24.80
2022-08-17T12:30:39.519Z,24.80
2022-08-17T12:33:31.022Z,24.70
2022-08-17T12:36:21.368Z,24.60
2022-08-17T12:39:14.042Z,24.50
2022-08-17T12:42:03.002Z,24.40
2022-08-17T12:44:50.256Z,24.40
2022-08-17T12:47:38.269Z,24.30
2022-08-17T12:50:28.984Z,24.20
2022-08-17T12:53:30.015Z,24.20
2022-08-17T12:56:16.224Z,24.10
2022-08-17T12:59:02.483Z,24.10
2022-08-17T13:01:48.936Z,24.00
2022-08-17T13:04:39.937Z,23.90
2022-08-17T13:07:33.064Z,23.90
2022-08-17T13:10:32.255Z,23.80
2022-08-17T13:13:26.722Z,23.80
2022-08-17T13:16:12.909Z,23.70
2022-08-17T13:19:07.151Z,23.60
2022-08-17T13:21:58.359Z,23.60
2022-08-17T13:24:54.122Z,23.60
2022-08-17T13:27:43.047Z,23.50
2022-08-17T13:30:33.287Z,23.50
2022-08-17T13:33:43.457Z,23.50
2022-08-17T13:36:33.895Z,23.50
2022-08-17T13:39:23.191Z,23.50
2022-08-17T13:42:50.390Z,23.60
2022-08-17T13:45:46.079Z,23.70
2022-08-17T13:48:37.280Z,23.70
2022-08-17T13:51:47.377Z,23.80
2022-08-17T13:54:37.047Z,23.90
2022-08-17T13:57:25.459Z,23.90
2022-08-17T14:00:30.062Z,24.00
2022-08-17T14:03:15.977Z,24.10
2022-08-17T14:06:05.885Z,24.10
2022-08-17T14:08:55.786Z,24.10
2022-08-17T14:11:42.861Z,24.10
2022-08-17T14:14:29.322Z,24.20
2022-08-17T14:17:16.510Z,24.20
2022-08-17T14:20:03.340Z,24.20
2022-08-17T14:22:52.113Z,24.30
2022-08-17T14:25:38.244Z,24.30
2022-08-17T14:28:24.572Z,24.30
2022-08-17T14:31:13.750Z,24.30
2022-08-17T14:33:59.781Z,24.30
2022-08-17T14:36:48.527Z,24.30
2022-08-17T14:39:34.988Z,24.20
2022-08-17T14:42:24.632Z,24.20
2022-08-17T14:45:32.981Z,24.20
2022-08-17T14:48:17.660Z,24.10
2022-08-17T14:51:04.813Z,24.10
2022-08-17T14:53:50.999Z,24.10
2022-08-17T14:56:38.270Z,24.10
2022-08-17T14:59:24.382Z,24.10
2022-08-17T15:02:10.801Z,24.10
2022-08-17T15:05:02.160Z,24.10
2022-08-17T15:07:48.236Z,24.00
2022-08-17T15:10:34.925Z,24.00
2022-08-17T15:13:24.551Z,24.00
2022-08-17T15:16:13.693Z,24.00
2022-08-17T15:18:59.886Z,24.00
2022-08-17T15:21:47.032Z,23.90
2022-08-17T15:24:33.706Z,23.90
2022-08-17T15:27:32.238Z,23.80
2022-08-17T15:30:19.180Z,23.80
2022-08-17T15:33:05.328Z,23.70
2022-08-17T15:35:53.390Z,23.80
2022-08-17T15:38:39.692Z,23.70
2022-08-17T15:41:28.219Z,23.80
2022-08-17T15:44:14.472Z,23.80
2022-08-17T15:47:02.909Z,23.80
2022-08-17T15:49:48.764Z,23.80
2022-08-17T15:52:40.530Z,23.70
2022-08-17T15:55:28.901Z,23.70
2022-08-17T15:58:15.038Z,23.70
2022-08-17T16:01:15.175Z,23.60
2022-08-17T16:04:07.286Z,23.60
2022-08-17T16:07:12.094Z,23.60
2022-08-17T16:09:58.130Z,23.50
2022-08-17T16:12:46.666Z,23.50
2022-08-17T16:15:32.997Z,23.40
2022-08-17T16:18:19.263Z,23.40
2022-08-17T16:21:27.572Z,23.40
2022-08-17T16:24:14.882Z,23.40
2022-08-17T16:27:04.447Z,23.40
2022-08-17T16:29:58.668Z,23.30
2022-08-17T16:32:45.289Z,23.20
2022-08-17T16:35:31.507Z,23.00
2022-08-17T16:38:18.795Z,22.90
2022-08-17T16:41:05.900Z,22.80
2022-08-17T16:43:52.137Z,22.70
2022-08-17T16:46:40.243Z,22.60
2022-08-17T16:49:36.963Z,22.60
2022-08-17T16:52:32.176Z,22.50
2022-08-17T16:55:22.172Z,22.50
2022-08-17T16:58:11.652Z,22.50
2022-08-17T17:00:59.465Z,22.50
2022-08-17T17:03:54.118Z,22.50
2022-08-17T17:07:05.576Z,22.50
2022-08-17T17:09:55.347Z,22.40
2022-08-17T17:13:01.467Z,22.30
2022-08-17T17:16:00.771Z,22.30
2022-08-17T17:19:12.410Z,22.30
2022-08-17T17:22:22.814Z,22.30
2022-08-17T17:25:27.234Z,22.20
2022-08-17T17:28:34.668Z,22.20
2022-08-17T17:31:25.197Z,22.10
2022-08-17T17:34:16.523Z,22.10
2022-08-17T17:36:55.105Z,22.00
2022-08-17T17:39:49.032Z,22.00
2022-08-17T17:42:39.447Z,21.90
2022-08-17T17:45:32.590Z,21.90
2022-08-17T17:48:18.937Z,21.80
2022-08-17T17:52:09.042Z,21.70
2022-08-17T17:54:49.538Z,21.60
2022-08-17T17:57:55.919Z,21.50
2022-08-17T18:00:52.116Z,21.40
2022-08-17T18:04:21.256Z,21.40
2022-08-17T18:07:23.587Z,21.30
2022-08-17T18:10:44.926Z,21.30
2022-08-17T18:13:53.677Z,21.30
2022-08-17T18:16:42.847Z,21.30
2022-08-17T18:19:31.433Z,21.30
2022-08-17T18:22:20.208Z,21.30
2022-08-17T18:25:38.465Z,21.20
2022-08-17T18:29:27.724Z,21.30
2022-08-17T18:32:23.932Z,21.30
2022-08-17T18:35:15.244Z,21.20
2022-08-17T18:39:14.537Z,21.20
2022-08-17T18:42:18.817Z,21.20
2022-08-17T18:45:15.013Z,21.10
2022-08-17T18:48:40.049Z,21.10
2022-08-17T18:51:41.703Z,21.10
2022-08-17T18:54:29.202Z,21.00
2022-08-17T18:57:34.858Z,21.00
2022-08-17T19:00:43.590Z,21.00
2022-08-17T19:03:31.778Z,20.90
2022-08-17T19:06:23.874Z,20.90
2022-08-17T19:09:35.939Z,20.80
2022-08-17T19:12:40.544Z,20.70
2022-08-17T19:15:47.706Z,20.70
2022-08-17T19:19:26.823Z,20.70
2022-08-17T19:22:38.265Z,20.70
2022-08-17T19:25:31.618Z,20.70
2022-08-17T19:28:23.172Z,20.70
2022-08-17T19:31:17.102Z,20.70
2022-08-17T19:34:03.329Z,20.70
2022-08-17T19:37:08.910Z,20.70
2022-08-17T19:40:51.791Z,20.70
2022-08-17T19:43:48.021Z,20.70
2022-08-17T19:46:56.386Z,20.70
2022-08-17T19:49:53.055Z,20.70
2022-08-17T19:52:55.271Z,20.60
2022-08-17T19:55:51.035Z,20.60
2022-08-17T19:58:48.897Z,20.60
2022-08-17T20:02:03.735Z,20.60
2022-08-17T20:04:53.254Z,20.50
2022-08-17T20:07:54.232Z,20.50
2022-08-17T20:11:01.368Z,20.40
2022-08-17T20:13:56.369Z,20.40
2022-08-17T20:16:42.704Z,20.40
2022-08-17T20:19:45.363Z,20.30
2022-08-17T20:22:52.186Z,20.30
2022-08-17T20:25:54.002Z,20.20
2022-08-17T20:29:15.321Z,20.10
2022-08-17T20:32:01.378Z,20.10
2022-08-17T20:34:47.890Z,20.00
2022-08-17T20:37:36.242Z,19.90
2022-08-17T20:40:27.920Z,19.90
2022-08-17T20:43:32.558Z,19.90
2022-08-17T20:46:51.655Z,19.80
2022-08-17T20:49:44.630Z,19.70
2022-08-17T20:52:53.727Z,19.70
2022-08-17T20:55:52.516Z,19.70
2022-08-17T20:58:47.220Z,19.60
2022-08-17T21:01:40.725Z,19.60
2022-08-17T21:05:00.994Z,19.70
2022-08-17T21:10:35.620Z,19.70
2022-08-17T21:13:34.686Z,19.70
2022-08-17T21:16:58.698Z,19.70
2022-08-17T21:20:00.523Z,19.70
2022-08-17T21:23:12.203Z,19.80
2022-08-17T21:25:58.463Z,19.70
2022-08-17T21:29:31.423Z,19.80
2022-08-17T21:32:29.258Z,19.80
2022-08-17T21:35:26.093Z,19.80
2022-08-17T21:38:15.613Z,19.80
2022-08-17T21:41:01.567Z,19.80
2022-08-17T21:43:51.005Z,19.80
2022-08-17T21:46:39.796Z,19.80
2022-08-17T21:49:28.775Z,19.80
2022-08-17T21:52:17.594Z,19.80
2022-08-17T21:55:04.292Z,19.80
2022-08-17T21:58:13.347Z,19.70
2022-08-17T22:01:27.006Z,19.80
2022-08-17T22:04:13.136Z,19.70
2022-08-17T22:07:02.717Z,19.70
2022-08-17T22:09:50.109Z,19.60
2022-08-17T22:12:38.443Z,19.60
2022-08-17T22:15:25.106Z,19.60
2022-08-17T22:18:20.597Z,19.60
2022-08-17T22:21:08.219Z,19.60
2022-08-17T22:24:06.576Z,19.60
2022-08-17T22:27:07.528Z,19.50
2022-08-17T22:29:58.007Z,19.50
2022-08-17T22:32:46.717Z,19.50
2022-08-17T22:35:36.170Z,19.50
2022-08-17T22:38:22.286Z,19.50
2022-08-17T22:41:20.284Z,19.50
2022-08-17T22:44:15.763Z,19.50
2022-08-17T22:47:16.934Z,19.50
2022-08-17T22:50:05.211Z,19.50
2022-08-17T22:53:20.123Z,19.50
2022-08-17T22:56:25.933Z,19.50
2022-08-17T22:59:21.311Z,19.50
2022-08-17T23:02:26.864Z,19.50
2022-08-17T23:05:16.807Z,19.50
2022-08-17T23:08:03.731Z,19.50
2022-08-17T23:10:49.896Z,19.50
2022-08-17T23:13:37.926Z,19.50
2022-08-17T23:16:30.881Z,19.50
2022-08-17T23:19:20.122Z,19.50
2022-08-17T23:22:09.818Z,19.50
2022-08-17T23:24:55.758Z,19.50
2022-08-17T23:27:41.894Z,19.50
2022-08-17T23:30:31.215Z,19.50
2022-08-17T23:33:30.236Z,19.50
2022-08-17T23:36:17.353Z,19.50
2022-08-17T23:39:04.901Z,19.50
2022-08-17T23:41:53.447Z,19.50
2022-08-17T23:44:41.662Z,19.50
2022-08-17T23:47:28.601Z,19.50
2022-08-17T23:50:15.830Z,19.50
2022-08-17T23:53:06.437Z,19.50
2022-08-17T23:56:04.605Z,19.50
2022-08-17T23:58:56.651Z,19.50
